Time;durP1;ratioP1;P1;durP2;ratioP2;P2;SDS_P1;SDS_P2;PMS_P1;PMS_P2;Temp;Humidity;BMP_temperature;BMP_pressure;BME280_temperature;BME280_humidity;BME280_pressure;Samples;Min_cycle;Max_cycle;Signal;HPM_P1;HPM_P2
2023/09/18 00:02:15;;;;;;;3.57;2.37;;;;;;;;;;5105935;28;20200;-71
2023/09/18 00:04:42;;;;;;;2.67;2.23;;;;;;;;;;5097466;28;20589;-71
2023/09/18 00:07:10;;;;;;;3.17;2.67;;;;;;;;;;5104724;28;20203;-72
2023/09/18 00:09:37;;;;;;;4.23;2.40;;;;;;;;;;5108239;28;20219;-72
2023/09/18 00:12:06;;;;;;;3.43;2.47;;;;;;;;;;5105096;28;20296;-71
2023/09/18 00:14:37;;;;;;;5.47;2.70;;;;;;;;;;5097569;28;20195;-71
2023/09/18 00:17:04;;;;;;;4.37;2.87;;;;;;;;;;5105140;28;20207;-71
2023/09/18 00:19:33;;;;;;;3.90;2.77;;;;;;;;;;5096997;28;20651;-71
2023/09/18 00:22:00;;;;;;;4.20;2.57;;;;;;;;;;5105879;28;20204;-71
2023/09/18 00:24:27;;;;;;;4.70;3.00;;;;;;;;;;5096309;28;20192;-71
2023/09/18 00:26:54;;;;;;;5.67;3.00;;;;;;;;;;5105740;28;20203;-71
2023/09/18 00:29:21;;;;;;;4.10;2.87;;;;;;;;;;5095973;28;20220;-71
2023/09/18 00:31:49;;;;;;;3.33;2.40;;;;;;;;;;5093794;28;20212;-71
2023/09/18 00:34:15;;;;;;;4.47;2.73;;;;;;;;;;5093850;28;20196;-71
2023/09/18 00:36:42;;;;;;;2.80;2.60;;;;;;;;;;5094235;28;20200;-71
2023/09/18 00:39:09;;;;;;;2.70;2.50;;;;;;;;;;5099546;28;20199;-72
2023/09/18 00:41:37;;;;;;;4.40;2.50;;;;;;;;;;5101677;28;20265;-72
2023/09/18 00:44:05;;;;;;;4.67;2.70;;;;;;;;;;5113904;28;20199;-71
2023/09/18 00:46:32;;;;;;;3.53;2.47;;;;;;;;;;5100821;28;20658;-72
2023/09/18 00:49:00;;;;;;;6.10;2.80;;;;;;;;;;5093611;28;20232;-72
2023/09/18 00:51:27;;;;;;;4.93;2.60;;;;;;;;;;5093361;28;20617;-72
2023/09/18 00:53:54;;;;;;;4.07;2.83;;;;;;;;;;5093827;28;20208;-72
2023/09/18 00:56:21;;;;;;;3.90;2.77;;;;;;;;;;5107308;28;20203;-72
2023/09/18 00:58:48;;;;;;;3.23;2.50;;;;;;;;;;5093974;28;20223;-71
2023/09/18 01:01:16;;;;;;;2.70;2.50;;;;;;;;;;5094678;28;20208;-72
2023/09/18 01:03:43;;;;;;;2.90;2.50;;;;;;;;;;5112400;28;20199;-72
2023/09/18 01:06:11;;;;;;;4.07;2.80;;;;;;;;;;5097905;28;20204;-72
2023/09/18 01:08:37;;;;;;;3.40;2.63;;;;;;;;;;5093653;28;20632;-73
2023/09/18 01:11:08;;;;;;;6.27;2.87;;;;;;;;;;5094469;28;20229;-72
2023/09/18 01:13:39;;;;;;;3.87;2.77;;;;;;;;;;5114164;28;20252;-71
2023/09/18 01:16:09;;;;;;;2.83;2.20;;;;;;;;;;5099639;28;20708;-72
2023/09/18 01:18:36;;;;;;;2.93;2.70;;;;;;;;;;5102974;28;20212;-71
2023/09/18 01:21:03;;;;;;;4.20;2.80;;;;;;;;;;5093732;28;20201;-72
2023/09/18 01:23:31;;;;;;;2.67;2.37;;;;;;;;;;5104084;28;20203;-71
2023/09/18 01:25:58;;;;;;;2.87;2.50;;;;;;;;;;5095586;28;20257;-72
2023/09/18 01:28:25;;;;;;;3.23;2.93;;;;;;;;;;5093381;28;20227;-72
2023/09/18 01:30:52;;;;;;;3.03;2.73;;;;;;;;;;5106128;28;20193;-71
2023/09/18 01:33:20;;;;;;;2.60;2.40;;;;;;;;;;5104610;28;20203;-71
2023/09/18 01:35:47;;;;;;;3.47;2.97;;;;;;;;;;5098157;28;20335;-71
2023/09/18 01:38:14;;;;;;;7.87;2.93;;;;;;;;;;5104505;28;20627;-72
2023/09/18 01:40:43;;;;;;;3.97;2.50;;;;;;;;;;5098597;28;20204;-72
2023/09/18 01:43:09;;;;;;;3.77;2.67;;;;;;;;;;5113375;28;20199;-72
2023/09/18 01:45:37;;;;;;;2.87;2.60;;;;;;;;;;5110849;28;20652;-71
2023/09/18 01:48:05;;;;;;;4.07;2.80;;;;;;;;;;5101492;28;20199;-71
2023/09/18 01:50:32;;;;;;;2.47;2.27;;;;;;;;;;5112973;28;20211;-71
2023/09/18 01:53:00;;;;;;;3.53;2.50;;;;;;;;;;5113106;28;20811;-71
2023/09/18 01:55:28;;;;;;;3.33;2.43;;;;;;;;;;5096108;28;20277;-71
2023/09/18 01:57:57;;;;;;;4.73;3.07;;;;;;;;;;5092343;28;20624;-71
2023/09/18 02:00:23;;;;;;;3.30;2.57;;;;;;;;;;5109972;28;20199;-72
2023/09/18 02:02:50;;;;;;;4.43;3.20;;;;;;;;;;5112285;28;20260;-72
2023/09/18 02:05:17;;;;;;;3.63;2.90;;;;;;;;;;5098958;28;20199;-72
2023/09/18 02:07:44;;;;;;;5.23;2.87;;;;;;;;;;5101772;28;20207;-72
2023/09/18 02:10:12;;;;;;;2.60;2.40;;;;;;;;;;5105703;28;20219;-72
2023/09/18 02:12:39;;;;;;;3.83;2.70;;;;;;;;;;5104023;28;20226;-71
2023/09/18 02:15:10;;;;;;;4.33;2.63;;;;;;;;;;5111980;28;20215;-71
2023/09/18 02:17:37;;;;;;;2.70;2.50;;;;;;;;;;5099866;28;20708;-71
2023/09/18 02:20:11;;;;;;;3.83;2.50;;;;;;;;;;5092030;28;20204;-71
2023/09/18 02:22:39;;;;;;;2.57;2.37;;;;;;;;;;5108802;28;20203;-71
2023/09/18 02:25:07;;;;;;;3.27;2.60;;;;;;;;;;5102195;28;20199;-71
2023/09/18 02:27:34;;;;;;;2.63;2.33;;;;;;;;;;5109417;28;20199;-71
2023/09/18 02:30:00;;;;;;;2.90;2.20;;;;;;;;;;5101722;28;20227;-72
2023/09/18 02:32:29;;;;;;;2.60;2.40;;;;;;;;;;5091269;28;20212;-71
2023/09/18 02:34:56;;;;;;;2.50;2.30;;;;;;;;;;5091817;28;20215;-72
2023/09/18 02:37:23;;;;;;;4.50;2.73;;;;;;;;;;5091608;28;20211;-71
2023/09/18 02:39:50;;;;;;;3.43;2.60;;;;;;;;;;5091622;28;20232;-71
2023/09/18 02:42:17;;;;;;;5.13;2.63;;;;;;;;;;5104906;28;20269;-72
2023/09/18 02:44:44;;;;;;;4.10;2.50;;;;;;;;;;5092078;28;20204;-72
2023/09/18 02:47:10;;;;;;;3.77;2.63;;;;;;;;;;5104906;28;20200;-71
2023/09/18 02:49:39;;;;;;;2.87;2.53;;;;;;;;;;5104001;28;20219;-71
2023/09/18 02:52:06;;;;;;;3.63;3.33;;;;;;;;;;5111109;28;20203;-71
2023/09/18 02:54:33;;;;;;;4.33;2.27;;;;;;;;;;5099026;28;20340;-71
2023/09/18 02:56:59;;;;;;;5.63;3.07;;;;;;;;;;5104712;28;20204;-71
2023/09/18 02:59:26;;;;;;;4.70;2.60;;;;;;;;;;5110623;28;20200;-71
2023/09/18 03:01:53;;;;;;;3.93;2.93;;;;;;;;;;5097811;28;20200;-71
2023/09/18 03:04:20;;;;;;;4.47;2.80;;;;;;;;;;5097735;28;20206;-72
2023/09/18 03:06:49;;;;;;;3.20;2.30;;;;;;;;;;5111069;28;20199;-72
2023/09/18 03:09:16;;;;;;;2.70;2.50;;;;;;;;;;5110431;28;20223;-72
2023/09/18 03:11:43;;;;;;;3.90;3.50;;;;;;;;;;5099013;28;20257;-71
2023/09/18 03:14:10;;;;;;;3.30;3.00;;;;;;;;;;5097133;28;20203;-71
2023/09/18 03:16:37;;;;;;;3.60;2.70;;;;;;;;;;5107149;28;20776;-71
2023/09/18 03:19:04;;;;;;;4.23;2.60;;;;;;;;;;5097191;28;20267;-71
2023/09/18 03:21:33;;;;;;;4.70;3.07;;;;;;;;;;5111427;28;20209;-71
2023/09/18 03:24:01;;;;;;;3.47;3.00;;;;;;;;;;5111461;28;20199;-71
2023/09/18 03:26:28;;;;;;;3.40;3.10;;;;;;;;;;5109545;28;20203;-71
2023/09/18 03:28:54;;;;;;;2.40;2.20;;;;;;;;;;5095092;28;20705;-72
2023/09/18 03:31:21;;;;;;;3.33;2.47;;;;;;;;;;5099625;28;20677;-71
2023/09/18 03:33:48;;;;;;;3.33;2.80;;;;;;;;;;5095775;28;20584;-71
2023/09/18 03:36:15;;;;;;;3.60;2.90;;;;;;;;;;5099589;28;20199;-72
2023/09/18 03:38:41;;;;;;;4.17;3.00;;;;;;;;;;5097290;28;20681;-71
2023/09/18 03:41:09;;;;;;;4.30;2.53;;;;;;;;;;5101933;28;20203;-71
2023/09/18 03:43:36;;;;;;;4.97;2.33;;;;;;;;;;5098397;28;20199;-71
2023/09/18 03:46:06;;;;;;;3.03;2.50;;;;;;;;;;5097833;28;20689;-71
2023/09/18 03:48:37;;;;;;;2.87;2.67;;;;;;;;;;5090499;28;20203;-71
2023/09/18 03:51:04;;;;;;;2.67;2.47;;;;;;;;;;5100351;28;20204;-71
2023/09/18 03:53:31;;;;;;;2.63;2.43;;;;;;;;;;5097348;28;20702;-71
2023/09/18 03:55:57;;;;;;;2.73;2.53;;;;;;;;;;5111106;28;20263;-72
2023/09/18 03:58:26;;;;;;;2.67;2.33;;;;;;;;;;5105463;28;20672;-75
2023/09/18 04:00:53;;;;;;;3.20;2.50;;;;;;;;;;5098277;28;20714;-75
2023/09/18 04:03:20;;;;;;;3.13;2.33;;;;;;;;;;5090349;28;20198;-75
2023/09/18 04:05:46;;;;;;;5.30;2.70;;;;;;;;;;5092434;28;20706;-74
2023/09/18 04:08:13;;;;;;;2.87;2.67;;;;;;;;;;5096009;28;20203;-73
2023/09/18 04:10:40;;;;;;;3.23;2.93;;;;;;;;;;5094373;28;20234;-73
2023/09/18 04:13:06;;;;;;;5.60;3.00;;;;;;;;;;5091318;28;20293;-73
2023/09/18 04:15:37;;;;;;;3.37;2.13;;;;;;;;;;5103803;28;20204;-73
2023/09/18 04:18:04;;;;;;;3.67;3.10;;;;;;;;;;5090165;28;20706;-73
2023/09/18 04:20:31;;;;;;;4.93;2.90;;;;;;;;;;5098118;28;20261;-74
2023/09/18 04:23:19;;;;;;;4.27;2.87;;;;;;;;;;5092243;28;20200;-77
2023/09/18 04:25:47;;;;;;;3.77;2.67;;;;;;;;;;5090049;28;20200;-77
2023/09/18 04:28:14;;;;;;;3.20;2.90;;;;;;;;;;5090165;28;20206;-77
2023/09/18 04:30:42;;;;;;;4.30;3.00;;;;;;;;;;5094906;28;20216;-77
2023/09/18 04:33:09;;;;;;;5.43;2.87;;;;;;;;;;5110377;28;20677;-77
2023/09/18 04:35:39;;;;;;;3.30;2.80;;;;;;;;;;5110521;28;20226;-77
2023/09/18 04:38:08;;;;;;;3.97;3.30;;;;;;;;;;5113564;28;20681;-77
2023/09/18 04:40:35;;;;;;;3.43;3.10;;;;;;;;;;5099777;28;20209;-77
2023/09/18 04:43:03;;;;;;;3.40;3.07;;;;;;;;;;5114142;28;20231;-77
2023/09/18 04:45:30;;;;;;;3.00;2.77;;;;;;;;;;5093623;28;20575;-77
2023/09/18 04:47:58;;;;;;;3.53;3.23;;;;;;;;;;5091814;28;20723;-77
2023/09/18 04:50:26;;;;;;;3.93;3.30;;;;;;;;;;5100654;28;20358;-77
2023/09/18 04:52:54;;;;;;;4.47;3.37;;;;;;;;;;5098532;28;20203;-77
2023/09/18 04:55:22;;;;;;;5.93;3.50;;;;;;;;;;5093452;28;20206;-77
2023/09/18 04:57:48;;;;;;;4.97;4.00;;;;;;;;;;5093887;28;20203;-77
2023/09/18 05:00:16;;;;;;;4.53;3.57;;;;;;;;;;5105572;28;20264;-77
2023/09/18 05:02:43;;;;;;;5.83;3.40;;;;;;;;;;5093313;28;20203;-77
2023/09/18 05:05:12;;;;;;;8.40;3.93;;;;;;;;;;5093742;28;20249;-77
2023/09/18 05:07:39;;;;;;;5.50;3.97;;;;;;;;;;5093192;28;20204;-77
2023/09/18 05:10:06;;;;;;;6.53;4.00;;;;;;;;;;5093122;28;20238;-77
2023/09/18 05:12:33;;;;;;;11.17;4.00;;;;;;;;;;5093648;28;20227;-77
2023/09/18 05:15:00;;;;;;;7.20;3.17;;;;;;;;;;5093221;28;20216;-77
2023/09/18 05:17:42;;;;;;;9.60;4.07;;;;;;;;;;5093444;28;20195;-77
2023/09/18 05:20:11;;;;;;;5.83;3.50;;;;;;;;;;5105421;28;20206;-77
2023/09/18 05:22:39;;;;;;;4.07;3.37;;;;;;;;;;5096815;28;20607;-77
2023/09/18 05:25:06;;;;;;;4.30;2.87;;;;;;;;;;5093102;28;20200;-77
2023/09/18 05:27:33;;;;;;;4.73;3.20;;;;;;;;;;5092979;28;20618;-77
2023/09/18 05:30:00;;;;;;;3.10;2.90;;;;;;;;;;5092883;28;20717;-77
2023/09/18 05:32:27;;;;;;;5.50;3.53;;;;;;;;;;5106803;28;20203;-77
2023/09/18 05:34:53;;;;;;;7.47;3.73;;;;;;;;;;5093000;28;20200;-77
2023/09/18 05:37:20;;;;;;;3.93;3.40;;;;;;;;;;5096984;28;20673;-77
2023/09/18 05:39:48;;;;;;;5.50;3.97;;;;;;;;;;5101890;28;20253;-77
2023/09/18 05:42:16;;;;;;;6.87;3.13;;;;;;;;;;5106481;28;20203;-77
2023/09/18 05:44:44;;;;;;;7.13;3.43;;;;;;;;;;5093192;28;20211;-77
2023/09/18 05:47:11;;;;;;;3.93;2.50;;;;;;;;;;5092675;28;20455;-77
2023/09/18 05:49:37;;;;;;;3.67;2.80;;;;;;;;;;5091848;28;20224;-77
2023/09/18 05:52:04;;;;;;;3.93;3.50;;;;;;;;;;5092629;28;20200;-77
2023/09/18 05:54:31;;;;;;;3.60;2.80;;;;;;;;;;5093069;28;20204;-77
2023/09/18 05:57:00;;;;;;;6.40;2.77;;;;;;;;;;5105923;28;20575;-77
2023/09/18 05:59:28;;;;;;;3.17;2.87;;;;;;;;;;5106310;28;20203;-77
2023/09/18 06:01:55;;;;;;;5.67;3.30;;;;;;;;;;5092151;28;20203;-77
2023/09/18 06:04:23;;;;;;;3.80;2.60;;;;;;;;;;5106373;28;20578;-77
2023/09/18 06:06:51;;;;;;;5.00;3.27;;;;;;;;;;5105247;28;20223;-77
2023/09/18 06:09:18;;;;;;;4.67;3.33;;;;;;;;;;5092858;28;20200;-77
2023/09/18 06:11:45;;;;;;;2.80;2.43;;;;;;;;;;5104874;28;20228;-77
2023/09/18 06:14:13;;;;;;;3.03;2.80;;;;;;;;;;5092531;28;20596;-77
2023/09/18 06:16:40;;;;;;;5.40;3.33;;;;;;;;;;5091960;28;20200;-77
2023/09/18 06:19:07;;;;;;;4.80;2.77;;;;;;;;;;5105943;28;20252;-77
2023/09/18 06:21:33;;;;;;;3.90;2.50;;;;;;;;;;5092207;28;20642;-77
2023/09/18 06:24:00;;;;;;;9.40;3.03;;;;;;;;;;5092000;28;20622;-77
2023/09/18 06:26:27;;;;;;;3.30;3.00;;;;;;;;;;5091822;28;20601;-77
2023/09/18 06:28:54;;;;;;;4.43;2.43;;;;;;;;;;5093426;28;20212;-77
2023/09/18 06:31:23;;;;;;;3.17;2.87;;;;;;;;;;5103698;28;20228;-77
2023/09/18 06:33:50;;;;;;;2.77;2.57;;;;;;;;;;5105350;28;20256;-77
2023/09/18 06:36:16;;;;;;;2.37;2.10;;;;;;;;;;5100467;28;20203;-77
2023/09/18 06:38:43;;;;;;;3.23;2.50;;;;;;;;;;5098588;28;20624;-77
2023/09/18 06:41:10;;;;;;;3.27;2.50;;;;;;;;;;5102629;28;20192;-77
2023/09/18 06:43:36;;;;;;;3.87;2.33;;;;;;;;;;5093980;28;20212;-77
2023/09/18 06:46:03;;;;;;;7.97;2.80;;;;;;;;;;5102631;28;20208;-77
2023/09/18 06:48:32;;;;;;;3.27;2.70;;;;;;;;;;5094894;28;20195;-77
2023/09/18 06:51:00;;;;;;;4.67;2.50;;;;;;;;;;5101157;28;20665;-77
2023/09/18 06:53:27;;;;;;;3.80;2.60;;;;;;;;;;5104916;28;20193;-77
2023/09/18 06:55:54;;;;;;;3.93;2.80;;;;;;;;;;5091876;28;20208;-77
2023/09/18 06:58:21;;;;;;;5.47;3.27;;;;;;;;;;5105101;28;20204;-77
2023/09/18 07:00:50;;;;;;;3.37;2.47;;;;;;;;;;5102448;28;20211;-77
2023/09/18 07:03:17;;;;;;;2.80;2.60;;;;;;;;;;5106776;28;20192;-77
2023/09/18 07:05:46;;;;;;;4.97;3.10;;;;;;;;;;5091346;28;20226;-77
2023/09/18 07:08:13;;;;;;;9.57;3.23;;;;;;;;;;5104671;28;20682;-77
2023/09/18 07:10:40;;;;;;;2.97;2.60;;;;;;;;;;5103199;28;20219;-77
2023/09/18 07:13:07;;;;;;;3.67;2.93;;;;;;;;;;5110733;28;20234;-77
2023/09/18 07:15:35;;;;;;;3.17;2.63;;;;;;;;;;5099001;28;20200;-77
2023/09/18 07:18:02;;;;;;;2.30;2.10;;;;;;;;;;5091159;28;20193;-77
2023/09/18 07:20:28;;;;;;;3.50;2.20;;;;;;;;;;5091221;28;20204;-77
2023/09/18 07:22:57;;;;;;;4.10;2.97;;;;;;;;;;5104476;28;20693;-77
2023/09/18 07:25:24;;;;;;;6.73;3.10;;;;;;;;;;5103772;28;20203;-77
2023/09/18 07:27:50;;;;;;;5.30;2.80;;;;;;;;;;5091629;28;20200;-77
2023/09/18 07:30:19;;;;;;;3.23;2.80;;;;;;;;;;5090995;28;20277;-77
2023/09/18 07:32:46;;;;;;;8.63;2.60;;;;;;;;;;5104407;28;20208;-77
2023/09/18 07:35:14;;;;;;;8.97;3.43;;;;;;;;;;5090690;28;20226;-77
2023/09/18 07:37:41;;;;;;;9.67;2.70;;;;;;;;;;5097617;28;20261;-77
2023/09/18 07:40:10;;;;;;;15.83;4.07;;;;;;;;;;5097347;28;20226;-77
2023/09/18 07:42:37;;;;;;;9.87;3.73;;;;;;;;;;5098680;28;20203;-77
2023/09/18 07:45:04;;;;;;;3.73;2.57;;;;;;;;;;5097111;28;20212;-77
2023/09/18 07:47:31;;;;;;;10.47;3.23;;;;;;;;;;5103035;28;20234;-77
2023/09/18 07:49:58;;;;;;;19.10;3.37;;;;;;;;;;5090601;28;20234;-77
2023/09/18 07:52:25;;;;;;;6.87;3.07;;;;;;;;;;5098946;28;20256;-77
2023/09/18 07:54:51;;;;;;;11.23;2.93;;;;;;;;;;5097468;28;20199;-77
2023/09/18 07:57:22;;;;;;;5.23;3.47;;;;;;;;;;5110517;28;20216;-77
2023/09/18 07:59:49;;;;;;;4.80;3.10;;;;;;;;;;5109024;28;20200;-77
2023/09/18 08:02:17;;;;;;;4.10;2.53;;;;;;;;;;5099502;28;20196;-77
2023/09/18 08:04:44;;;;;;;2.87;2.17;;;;;;;;;;5097095;28;20201;-77
2023/09/18 08:07:12;;;;;;;4.27;2.30;;;;;;;;;;5110663;28;20200;-77
2023/09/18 08:09:39;;;;;;;6.23;3.27;;;;;;;;;;5094373;28;20219;-77
2023/09/18 08:12:07;;;;;;;2.17;2.00;;;;;;;;;;5091867;28;20242;-77
2023/09/18 08:14:36;;;;;;;2.30;2.10;;;;;;;;;;5107811;28;20227;-77
2023/09/18 08:17:04;;;;;;;3.07;2.23;;;;;;;;;;5094573;28;20204;-77
2023/09/18 08:19:31;;;;;;;2.43;2.23;;;;;;;;;;5094421;28;20200;-77
2023/09/18 08:21:59;;;;;;;2.30;2.10;;;;;;;;;;5094541;28;20291;-77
2023/09/18 08:24:26;;;;;;;1.73;1.63;;;;;;;;;;5098475;28;20199;-77
2023/09/18 08:26:54;;;;;;;6.20;2.30;;;;;;;;;;5113972;28;20212;-77
2023/09/18 08:29:21;;;;;;;3.47;1.87;;;;;;;;;;5096708;28;20203;-77
2023/09/18 08:31:49;;;;;;;2.13;2.00;;;;;;;;;;5094078;28;20224;-77
2023/09/18 08:34:16;;;;;;;2.33;2.13;;;;;;;;;;5099240;28;20200;-77
2023/09/18 08:36:43;;;;;;;2.70;2.50;;;;;;;;;;5102262;28;20200;-77
2023/09/18 08:39:10;;;;;;;2.80;2.13;;;;;;;;;;5107639;28;20204;-77
2023/09/18 08:41:39;;;;;;;2.70;2.50;;;;;;;;;;5106906;28;20200;-77
2023/09/18 08:44:09;;;;;;;3.20;2.87;;;;;;;;;;5107722;28;20261;-77
2023/09/18 08:46:37;;;;;;;7.97;7.17;;;;;;;;;;5094241;28;20287;-77
2023/09/18 08:49:05;;;;;;;12.80;11.50;;;;;;;;;;5114231;28;20203;-77
2023/09/18 08:51:33;;;;;;;3.13;2.83;;;;;;;;;;5100515;28;20253;-77
2023/09/18 08:54:00;;;;;;;1.87;1.60;;;;;;;;;;5114490;28;20620;-78
2023/09/18 08:56:28;;;;;;;2.80;2.50;;;;;;;;;;5100208;28;20204;-77
2023/09/18 08:58:56;;;;;;;2.37;2.07;;;;;;;;;;5105648;28;20231;-77
2023/09/18 09:01:23;;;;;;;3.10;2.70;;;;;;;;;;5093581;28;20200;-77
2023/09/18 09:03:50;;;;;;;3.70;1.97;;;;;;;;;;5103173;28;20211;-77
2023/09/18 09:06:18;;;;;;;3.30;1.77;;;;;;;;;;5113597;28;20199;-77
2023/09/18 09:08:45;;;;;;;1.77;1.67;;;;;;;;;;5104947;28;20208;-77
2023/09/18 09:11:12;;;;;;;1.90;1.80;;;;;;;;;;5109459;28;20227;-77
2023/09/18 09:13:38;;;;;;;1.80;1.70;;;;;;;;;;5114032;28;20200;-77
2023/09/18 09:16:07;;;;;;;6.53;2.70;;;;;;;;;;5096463;28;20574;-77
2023/09/18 09:18:34;;;;;;;5.90;2.43;;;;;;;;;;5093457;28;20200;-77
2023/09/18 09:21:04;;;;;;;3.27;2.70;;;;;;;;;;5093342;28;20200;-77
2023/09/18 09:23:48;;;;;;;2.43;2.23;;;;;;;;;;5092387;28;20208;-77
2023/09/18 09:26:16;;;;;;;3.00;2.37;;;;;;;;;;5093009;28;20681;-77
2023/09/18 09:28:44;;;;;;;2.03;1.87;;;;;;;;;;5093049;28;20708;-77
2023/09/18 09:31:11;;;;;;;2.73;2.53;;;;;;;;;;5092682;28;20697;-77
2023/09/18 09:33:40;;;;;;;3.67;2.17;;;;;;;;;;5093448;28;20575;-77
2023/09/18 09:36:08;;;;;;;3.77;2.63;;;;;;;;;;5093018;28;20200;-77
2023/09/18 09:38:36;;;;;;;2.80;2.50;;;;;;;;;;5092860;28;20586;-77
2023/09/18 09:41:09;;;;;;;3.33;3.03;;;;;;;;;;5092495;28;20246;-77
2023/09/18 09:43:36;;;;;;;4.67;2.70;;;;;;;;;;5092849;28;20277;-77
2023/09/18 09:46:04;;;;;;;3.80;2.73;;;;;;;;;;5092785;28;20211;-77
2023/09/18 09:48:31;;;;;;;3.13;2.80;;;;;;;;;;5108807;28;20290;-77
2023/09/18 09:50:59;;;;;;;2.67;2.47;;;;;;;;;;5113091;28;20223;-77
2023/09/18 09:53:46;;;;;;;3.37;3.07;;;;;;;;;;5113144;28;20203;-77
2023/09/18 09:56:13;;;;;;;2.93;2.70;;;;;;;;;;5112855;28;20200;-77
2023/09/18 09:58:43;;;;;;;3.17;2.87;;;;;;;;;;5112918;28;20196;-78
2023/09/18 10:01:17;;;;;;;8.10;3.00;;;;;;;;;;5098580;28;20265;-77
2023/09/18 10:03:44;;;;;;;3.80;3.50;;;;;;;;;;5092346;28;20200;-77
2023/09/18 10:06:13;;;;;;;3.40;3.10;;;;;;;;;;5092636;28;20204;-77
2023/09/18 10:08:40;;;;;;;5.17;3.67;;;;;;;;;;5092163;28;20564;-77
2023/09/18 10:11:11;;;;;;;3.53;3.20;;;;;;;;;;5091885;28;20614;-77
2023/09/18 10:13:43;;;;;;;5.03;3.03;;;;;;;;;;5092714;28;20204;-77
2023/09/18 10:16:11;;;;;;;5.50;3.30;;;;;;;;;;5091889;28;20207;-77
2023/09/18 10:18:41;;;;;;;3.97;3.67;;;;;;;;;;5104197;28;20199;-77
2023/09/18 10:21:15;;;;;;;7.13;2.97;;;;;;;;;;5094399;28;20285;-78
2023/09/18 10:23:52;;;;;;;3.50;3.27;;;;;;;;;;5104331;28;20278;-77
2023/09/18 10:26:25;;;;;;;3.60;3.30;;;;;;;;;;5111810;28;20686;-77
2023/09/18 10:28:55;;;;;;;3.33;3.03;;;;;;;;;;5097982;28;20236;-77
2023/09/18 10:31:23;;;;;;;4.80;3.50;;;;;;;;;;5092142;28;20251;-77
2023/09/18 10:33:50;;;;;;;4.00;3.60;;;;;;;;;;5107346;28;20635;-77
2023/09/18 10:36:17;;;;;;;3.80;3.50;;;;;;;;;;5111664;28;20196;-77
2023/09/18 10:38:49;;;;;;;4.33;3.47;;;;;;;;;;5112109;28;20638;-77
2023/09/18 10:41:17;;;;;;;4.43;3.67;;;;;;;;;;5102336;28;20235;-77
2023/09/18 10:43:46;;;;;;;3.73;3.00;;;;;;;;;;5109028;28;20564;-77
2023/09/18 10:46:14;;;;;;;4.13;3.77;;;;;;;;;;5111553;28;20583;-77
2023/09/18 10:48:41;;;;;;;4.03;3.70;;;;;;;;;;5107910;28;20257;-78
2023/09/18 10:51:08;;;;;;;5.07;3.30;;;;;;;;;;5102626;28;20219;-77
2023/09/18 10:53:35;;;;;;;6.43;4.00;;;;;;;;;;5098943;28;20256;-77
2023/09/18 10:56:04;;;;;;;3.33;3.13;;;;;;;;;;5094509;28;20196;-77
2023/09/18 10:58:35;;;;;;;4.07;3.53;;;;;;;;;;5091219;28;20701;-78
2023/09/18 11:01:03;;;;;;;3.90;3.60;;;;;;;;;;5090886;28;20215;-77
2023/09/18 11:03:30;;;;;;;3.87;3.50;;;;;;;;;;5103089;28;20196;-78
2023/09/18 11:06:09;;;;;;;6.40;3.83;;;;;;;;;;5092702;28;20204;-77
2023/09/18 11:08:44;;;;;;;6.67;3.47;;;;;;;;;;5091249;28;20686;-78
2023/09/18 11:11:14;;;;;;;5.13;3.90;;;;;;;;;;5103016;28;20322;-77
2023/09/18 11:13:42;;;;;;;4.47;4.13;;;;;;;;;;5091208;28;20228;-77
2023/09/18 11:16:35;;;;;;;6.33;3.93;;;;;;;;;;5099704;28;20199;-78
2023/09/18 11:19:19;;;;;;;5.50;3.97;;;;;;;;;;5091682;28;20215;-78
2023/09/18 11:21:46;;;;;;;4.40;4.00;;;;;;;;;;5090950;28;20299;-78
2023/09/18 11:24:18;;;;;;;4.50;4.10;;;;;;;;;;5104675;28;20693;-78
2023/09/18 11:26:47;;;;;;;5.27;3.73;;;;;;;;;;5091053;28;20204;-77
2023/09/18 11:29:17;;;;;;;4.90;4.47;;;;;;;;;;5095231;28;20203;-77
2023/09/18 11:31:47;;;;;;;4.10;3.70;;;;;;;;;;5099779;28;20234;-77
2023/09/18 11:34:15;;;;;;;4.53;3.73;;;;;;;;;;5095190;28;20253;-77
2023/09/18 11:36:42;;;;;;;6.87;4.57;;;;;;;;;;5102256;28;20203;-77
2023/09/18 11:39:11;;;;;;;4.07;3.77;;;;;;;;;;5105726;28;20200;-77
2023/09/18 11:41:38;;;;;;;4.03;3.73;;;;;;;;;;5090598;28;20200;-77
2023/09/18 11:44:34;;;;;;;4.27;3.87;;;;;;;;;;5090981;28;20261;-76
2023/09/18 11:47:04;;;;;;;8.80;4.03;;;;;;;;;;5103620;28;20274;-77
2023/09/18 11:49:32;;;;;;;5.10;4.03;;;;;;;;;;5090826;28;20208;-77
2023/09/18 11:52:01;;;;;;;6.93;4.13;;;;;;;;;;5104066;28;20285;-77
2023/09/18 11:54:28;;;;;;;4.07;3.77;;;;;;;;;;5090593;28;20204;-78
2023/09/18 11:56:56;;;;;;;5.70;4.00;;;;;;;;;;5090632;28;20283;-78
2023/09/18 11:59:36;;;;;;;4.40;3.97;;;;;;;;;;5100253;28;20282;-79
2023/09/18 12:02:06;;;;;;;3.93;3.63;;;;;;;;;;5090954;28;20577;-78
2023/09/18 12:04:32;;;;;;;4.00;3.60;;;;;;;;;;5090565;28;20204;-77
2023/09/18 12:07:01;;;;;;;4.40;4.00;;;;;;;;;;5103779;28;20192;-77
2023/09/18 12:09:28;;;;;;;3.43;3.13;;;;;;;;;;5099910;28;20202;-78
2023/09/18 12:11:57;;;;;;;3.70;3.30;;;;;;;;;;5095185;28;20284;-77
2023/09/18 12:14:23;;;;;;;4.10;3.70;;;;;;;;;;5110886;28;20207;-78
2023/09/18 12:16:51;;;;;;;3.60;3.30;;;;;;;;;;5102028;28;20237;-77
2023/09/18 12:19:19;;;;;;;4.10;3.70;;;;;;;;;;5101896;28;20257;-76
2023/09/18 12:21:48;;;;;;;4.93;3.70;;;;;;;;;;5098609;28;20290;-77
2023/09/18 12:24:15;;;;;;;4.70;3.53;;;;;;;;;;5098747;28;20203;-76
2023/09/18 12:26:43;;;;;;;4.03;3.07;;;;;;;;;;5096054;28;20729;-78
2023/09/18 12:29:10;;;;;;;4.67;3.40;;;;;;;;;;5110353;28;20557;-77
2023/09/18 12:31:37;;;;;;;3.50;3.20;;;;;;;;;;5096938;28;20784;-78
2023/09/18 12:34:07;;;;;;;3.60;3.30;;;;;;;;;;5105078;28;20200;-77
2023/09/18 12:36:35;;;;;;;5.67;3.13;;;;;;;;;;5095650;28;20204;-77
2023/09/18 12:39:02;;;;;;;3.73;3.30;;;;;;;;;;5089678;28;20212;-77
2023/09/18 12:41:30;;;;;;;3.10;2.90;;;;;;;;;;5100992;28;20211;-77
2023/09/18 12:43:57;;;;;;;3.53;3.23;;;;;;;;;;5090670;28;20295;-76
2023/09/18 12:46:24;;;;;;;4.43;3.27;;;;;;;;;;5090176;28;20239;-77
2023/09/18 12:48:51;;;;;;;6.43;3.10;;;;;;;;;;5102508;28;20639;-78
2023/09/18 12:51:22;;;;;;;5.43;3.47;;;;;;;;;;5102815;28;20299;-78
2023/09/18 12:54:00;;;;;;;4.80;3.10;;;;;;;;;;5097696;28;20207;-77
2023/09/18 12:56:27;;;;;;;3.73;3.27;;;;;;;;;;5103829;28;20215;-76
2023/09/18 12:58:54;;;;;;;3.80;3.43;;;;;;;;;;5092766;28;20701;-76
2023/09/18 13:01:23;;;;;;;4.10;3.40;;;;;;;;;;5109730;28;20200;-78
2023/09/18 13:03:49;;;;;;;5.00;4.53;;;;;;;;;;5100211;28;20210;-76
2023/09/18 13:06:18;;;;;;;12.67;6.17;;;;;;;;;;5098048;28;20283;-77
2023/09/18 13:08:45;;;;;;;6.63;5.90;;;;;;;;;;5101766;28;20562;-77
2023/09/18 13:11:16;;;;;;;12.00;7.57;;;;;;;;;;5112225;28;20219;-77
2023/09/18 13:13:43;;;;;;;5.43;4.20;;;;;;;;;;5100627;28;20231;-77
2023/09/18 13:16:10;;;;;;;13.17;8.17;;;;;;;;;;5093016;28;20319;-76
2023/09/18 13:18:39;;;;;;;8.20;6.90;;;;;;;;;;5093270;28;20635;-77
2023/09/18 13:21:15;;;;;;;8.27;5.50;;;;;;;;;;5096756;28;20204;-76
2023/09/18 13:23:42;;;;;;;9.10;8.10;;;;;;;;;;5113426;28;20610;-77
2023/09/18 13:26:09;;;;;;;6.33;4.63;;;;;;;;;;5107521;28;20253;-77
2023/09/18 13:28:39;;;;;;;11.50;6.97;;;;;;;;;;5100110;28;20245;-79
2023/09/18 13:31:07;;;;;;;14.40;8.60;;;;;;;;;;5110384;28;20200;-77
2023/09/18 13:33:34;;;;;;;10.50;6.73;;;;;;;;;;5103171;28;20224;-77
2023/09/18 13:36:01;;;;;;;12.17;9.07;;;;;;;;;;5096098;28;20231;-76
2023/09/18 13:38:28;;;;;;;18.00;11.57;;;;;;;;;;5100260;28;20200;-77
2023/09/18 13:40:55;;;;;;;9.77;7.37;;;;;;;;;;5113430;28;20206;-77
2023/09/18 13:43:22;;;;;;;31.63;21.17;;;;;;;;;;5112681;28;20300;-76
2023/09/18 13:45:52;;;;;;;19.97;11.47;;;;;;;;;;5112443;28;20203;-76
2023/09/18 13:48:19;;;;;;;11.27;7.47;;;;;;;;;;5112643;28;20244;-76
2023/09/18 13:50:46;;;;;;;6.63;5.50;;;;;;;;;;5110024;28;20207;-77
2023/09/18 13:53:13;;;;;;;19.90;12.87;;;;;;;;;;5105873;28;20254;-76
2023/09/18 13:55:40;;;;;;;9.20;6.87;;;;;;;;;;5105747;28;20203;-76
2023/09/18 13:58:07;;;;;;;5.33;4.80;;;;;;;;;;5112471;28;20206;-76
2023/09/18 14:00:35;;;;;;;3.53;3.23;;;;;;;;;;5113100;28;20211;-76
2023/09/18 14:03:04;;;;;;;3.37;3.10;;;;;;;;;;5098955;28;20249;-76
2023/09/18 14:05:33;;;;;;;7.57;3.63;;;;;;;;;;5107119;28;20210;-77
2023/09/18 14:08:01;;;;;;;3.93;3.60;;;;;;;;;;5096928;28;20196;-76
2023/09/18 14:10:28;;;;;;;5.43;3.40;;;;;;;;;;5105222;28;20199;-77
2023/09/18 14:12:57;;;;;;;4.23;3.43;;;;;;;;;;5094914;28;20242;-77
2023/09/18 14:15:24;;;;;;;4.00;3.63;;;;;;;;;;5097656;28;20208;-76
2023/09/18 14:17:50;;;;;;;5.00;3.53;;;;;;;;;;5100023;28;20203;-76
2023/09/18 14:20:19;;;;;;;5.03;3.53;;;;;;;;;;5098084;28;20670;-76
2023/09/18 14:22:49;;;;;;;5.27;3.37;;;;;;;;;;5103532;28;20250;-77
2023/09/18 14:25:16;;;;;;;4.33;3.20;;;;;;;;;;5092500;28;20231;-76
2023/09/18 14:27:43;;;;;;;4.53;4.13;;;;;;;;;;5110269;28;20203;-76
2023/09/18 14:30:13;;;;;;;4.27;3.93;;;;;;;;;;5111826;28;20290;-76
2023/09/18 14:32:40;;;;;;;4.77;3.40;;;;;;;;;;5093218;28;20236;-76
2023/09/18 14:35:08;;;;;;;3.77;3.30;;;;;;;;;;5092014;28;20200;-76
2023/09/18 14:37:37;;;;;;;3.60;3.30;;;;;;;;;;5091692;28;20577;-76
2023/09/18 14:40:04;;;;;;;4.07;3.67;;;;;;;;;;5091840;28;20204;-76
2023/09/18 14:42:31;;;;;;;5.37;3.23;;;;;;;;;;5091679;28;20239;-76
2023/09/18 14:44:57;;;;;;;4.40;3.63;;;;;;;;;;5105288;28;20207;-76
2023/09/18 14:47:24;;;;;;;4.30;3.90;;;;;;;;;;5091481;28;20204;-76
2023/09/18 14:49:51;;;;;;;4.20;3.67;;;;;;;;;;5105668;28;20260;-76